Time;durP1;ratioP1;P1;durP2;ratioP2;P2;SDS_P1;SDS_P2;PMS_P1;PMS_P2;Temp;Humidity;BMP_temperature;BMP_pressure;BME280_temperature;BME280_humidity;BME280_pressure;Samples;Min_cycle;Max_cycle;Signal;HPM_P1;HPM_P2
2023/03/04 00:00:50;;;;;;;4.55;4.25;;;;;;;5.05;53.16;100020.13;4473095;31;33544;-82
2023/03/04 00:03:18;;;;;;;4.07;3.60;;;;;;;5.09;53.13;100020.94;4472375;31;32440;-82
2023/03/04 00:05:46;;;;;;;2.70;2.53;;;;;;;5.00;53.77;100023.72;4462377;32;33608;-82
2023/03/04 00:08:13;;;;;;;2.45;2.33;;;;;;;5.00;53.81;100023.72;4454562;31;33834;-82
2023/03/04 00:10:42;;;;;;;1.55;1.08;;;;;;;4.91;53.76;100023.87;4462491;32;32775;-82
2023/03/04 00:13:09;;;;;;;2.15;2.05;;;;;;;5.02;53.43;100027.16;4474321;31;32650;-82
2023/03/04 00:15:37;;;;;;;7.05;2.58;;;;;;;5.02;53.24;100022.78;4477023;32;33638;-82
2023/03/04 00:18:04;;;;;;;1.02;0.93;;;;;;;4.82;53.39;100025.75;4465715;31;34895;-82
2023/03/04 00:20:32;;;;;;;1.58;1.55;;;;;;;4.80;53.37;100022.31;4465367;32;33466;-82
2023/03/04 00:22:59;;;;;;;1.70;1.60;;;;;;;4.81;53.01;100018.78;4463467;31;33021;-82
2023/03/04 00:25:28;;;;;;;17.42;2.05;;;;;;;4.87;52.73;100017.81;4457915;31;33499;-82
2023/03/04 00:27:57;;;;;;;1.50;1.45;;;;;;;5.06;51.70;100013.13;4470828;32;33882;-82
2023/03/04 00:30:25;;;;;;;1.12;0.95;;;;;;;4.95;51.75;100008.09;4452864;31;33770;-82
2023/03/04 00:32:53;;;;;;;0.55;0.55;;;;;;;5.06;50.76;100019.22;4471481;31;32578;-82
2023/03/04 00:35:20;;;;;;;0.60;0.60;;;;;;;5.03;50.55;100013.19;4453776;31;32746;-83
2023/03/04 00:37:48;;;;;;;0.57;0.57;;;;;;;5.18;50.13;100010.31;4471127;31;33927;-83
2023/03/04 00:40:16;;;;;;;1.83;1.65;;;;;;;5.37;49.30;100014.31;4470934;32;33337;-83
2023/03/04 00:42:43;;;;;;;2.55;2.25;;;;;;;5.44;48.58;100016.78;4473953;31;33810;-83
2023/03/04 00:45:11;;;;;;;0.88;0.80;;;;;;;5.60;48.05;100015.59;4459793;31;33602;-83
2023/03/04 00:47:39;;;;;;;1.20;1.20;;;;;;;5.49;48.57;100007.94;4469872;31;33934;-83
2023/03/04 00:50:07;;;;;;;2.33;2.20;;;;;;;5.42;48.13;100008.12;4464405;32;33189;-83
2023/03/04 00:52:35;;;;;;;1.23;1.12;;;;;;;5.55;47.92;100007.81;4458979;31;34009;-82
2023/03/04 00:55:03;;;;;;;0.25;0.25;;;;;;;5.47;47.99;100007.13;4456623;31;32931;-83
2023/03/04 00:57:31;;;;;;;2.62;2.42;;;;;;;5.56;47.30;100008.72;4471559;32;33674;-83
2023/03/04 00:59:58;;;;;;;1.35;1.08;;;;;;;5.76;46.54;99996.06;4466779;31;34348;-83
2023/03/04 01:02:26;;;;;;;0.43;0.43;;;;;;;5.67;46.28;99998.88;4457351;32;32630;-81
2023/03/04 01:04:54;;;;;;;0.77;0.77;;;;;;;5.76;46.26;99998.69;4456717;31;33684;-81
2023/03/04 01:07:21;;;;;;;1.75;1.65;;;;;;;5.67;46.10;99996.25;4476884;32;34780;-82
2023/03/04 01:09:49;;;;;;;2.33;2.12;;;;;;;5.50;47.24;99995.72;4462322;31;32976;-81
2023/03/04 01:12:17;;;;;;;0.15;0.15;;;;;;;5.76;45.99;99990.81;4457186;32;33417;-82
2023/03/04 01:14:45;;;;;;;2.20;1.30;;;;;;;5.70;45.53;99990.97;4458574;32;33015;-81
2023/03/04 01:17:13;;;;;;;0.80;0.80;;;;;;;5.71;44.94;99987.44;4472692;31;33841;-82
2023/03/04 01:19:41;;;;;;;1.35;1.25;;;;;;;5.62;45.57;99985.00;4462705;31;33030;-82
2023/03/04 01:22:09;;;;;;;0.62;0.62;;;;;;;5.75;44.87;99978.63;4477280;32;33293;-82
2023/03/04 01:24:37;;;;;;;3.67;1.85;;;;;;;5.82;44.39;99979.34;4470801;32;34272;-82
2023/03/04 01:27:05;;;;;;;0.75;0.75;;;;;;;5.64;45.25;99984.06;4478297;32;33812;-83
2023/03/04 01:29:33;;;;;;;2.45;1.67;;;;;;;5.80;45.23;99976.75;4472562;31;34330;-83
2023/03/04 01:32:02;;;;;;;0.57;0.57;;;;;;;5.71;45.50;99982.19;4470587;32;33376;-82
2023/03/04 01:34:29;;;;;;;0.45;0.45;;;;;;;5.40;45.15;99981.94;4466012;31;33947;-83
2023/03/04 01:36:57;;;;;;;3.30;2.45;;;;;;;5.54;45.07;99979.91;4465419;31;33449;-82
2023/03/04 01:39:24;;;;;;;0.52;0.50;;;;;;;5.56;45.08;99972.03;4466058;31;33405;-83
2023/03/04 01:41:52;;;;;;;2.47;2.08;;;;;;;5.58;44.86;99970.25;4465777;32;32171;-82
2023/03/04 01:44:20;;;;;;;1.92;1.83;;;;;;;5.24;45.68;99968.28;4464722;32;34100;-81
2023/03/04 01:46:51;;;;;;;1.12;1.12;;;;;;;5.40;45.19;99974.94;4469344;31;33006;-81
2023/03/04 01:49:18;;;;;;;0.10;0.10;;;;;;;5.15;46.39;99965.84;4470836;31;33220;-81
2023/03/04 01:51:52;;;;;;;1.08;0.95;;;;;;;5.24;46.52;99955.22;4451869;31;32220;-82
2023/03/04 01:54:21;;;;;;;0.65;0.65;;;;;;;5.26;45.63;99958.66;4464736;31;33956;-83
2023/03/04 01:56:50;;;;;;;0.60;0.60;;;;;;;5.47;45.37;99956.50;4471134;31;33064;-82
2023/03/04 01:59:23;;;;;;;0.57;0.57;;;;;;;5.48;45.72;99953.84;4461313;31;33734;-83
2023/03/04 02:01:55;;;;;;;2.05;1.33;;;;;;;5.34;45.84;99967.22;4470246;32;32813;-82
2023/03/04 02:04:24;;;;;;;;;;;;;;;5.18;46.54;99957.94;4473739;31;32292;-81
2023/03/04 02:06:52;;;;;;;2.97;2.80;;;;;;;5.34;45.73;99961.13;4477691;31;34009;-81
2023/03/04 02:09:20;;;;;;;1.12;1.08;;;;;;;5.36;45.36;99959.31;4469757;31;33502;-81
2023/03/04 02:11:49;;;;;;;0.82;0.82;;;;;;;5.45;44.98;99953.03;4450232;31;32806;-81
2023/03/04 02:14:18;;;;;;;1.10;1.00;;;;;;;5.35;45.03;99948.00;4473097;31;34562;-81
2023/03/04 02:16:47;;;;;;;5.05;2.42;;;;;;;5.41;45.21;99947.00;4450603;31;33366;-81
2023/03/04 02:19:27;;;;;;;0.22;0.22;;;;;;;5.36;45.16;99943.62;4447908;31;33069;-82
2023/03/04 02:21:56;;;;;;;2.10;1.93;;;;;;;5.34;44.59;99940.19;4471265;31;33328;-82
2023/03/04 02:24:46;;;;;;;0.40;0.40;;;;;;;5.33;44.99;99947.19;4457287;31;32838;-81
2023/03/04 02:27:14;;;;;;;1.37;1.27;;;;;;;5.01;45.18;99937.31;4463894;31;33343;-82
2023/03/04 02:29:42;;;;;;;1.25;1.25;;;;;;;4.90;46.23;99938.44;4475188;32;33333;-82
2023/03/04 02:32:12;;;;;;;1.20;1.20;;;;;;;5.10;45.34;99928.44;4473193;31;32545;-82
2023/03/04 02:34:48;;;;;;;1.20;1.10;;;;;;;4.82;46.21;99926.34;4463876;31;33775;-82
2023/03/04 02:37:19;;;;;;;1.87;1.65;;;;;;;4.85;46.47;99920.19;4472577;31;32468;-82
2023/03/04 02:39:48;;;;;;;1.30;1.20;;;;;;;4.69;46.38;99918.72;4466580;31;32564;-83
2023/03/04 02:42:17;;;;;;;1.98;1.87;;;;;;;4.73;45.79;99923.88;4457017;32;33316;-82
2023/03/04 02:44:48;;;;;;;1.37;1.27;;;;;;;4.77;46.21;99917.72;4449787;31;33485;-82
2023/03/04 02:47:18;;;;;;;0.65;0.65;;;;;;;4.55;46.27;99911.97;4471013;31;34795;-82
2023/03/04 02:49:46;;;;;;;1.02;1.02;;;;;;;4.68;45.65;99911.78;4476105;31;34452;-82
2023/03/04 02:52:22;;;;;;;0.57;0.57;;;;;;;4.74;45.65;99899.44;4465607;32;33388;-83
2023/03/04 02:54:51;;;;;;;0.13;0.13;;;;;;;4.86;45.39;99904.47;4474870;32;32739;-82
2023/03/04 02:57:19;;;;;;;2.40;1.35;;;;;;;4.88;44.97;99897.44;4456580;31;33737;-82
2023/03/04 02:59:46;;;;;;;1.05;1.05;;;;;;;4.70;45.73;99897.81;4469376;31;33405;-82
2023/03/04 03:02:15;;;;;;;0.32;0.32;;;;;;;4.66;45.20;99901.34;4457322;31;33585;-82
2023/03/04 03:04:42;;;;;;;0.80;0.80;;;;;;;4.73;45.59;99900.34;4471488;31;34519;-82
2023/03/04 03:07:10;;;;;;;0.00;0.00;;;;;;;4.56;45.99;99902.41;4471157;31;34711;-82
2023/03/04 03:09:38;;;;;;;0.43;0.43;;;;;;;4.79;45.40;99897.59;4463644;32;32409;-82
2023/03/04 03:12:06;;;;;;;1.58;1.52;;;;;;;4.78;45.02;99897.62;4474072;32;33714;-82
2023/03/04 03:14:34;;;;;;;3.30;0.80;;;;;;;4.73;45.01;99895.09;4469036;32;33579;-83
2023/03/04 03:17:02;;;;;;;0.22;0.22;;;;;;;4.48;45.82;99893.84;4465452;31;33391;-81
2023/03/04 03:19:31;;;;;;;1.55;1.45;;;;;;;4.15;46.74;99903.97;4472845;31;33540;-81
2023/03/04 03:22:00;;;;;;;2.65;0.62;;;;;;;4.37;46.74;99897.50;4478368;32;32940;-82
2023/03/04 03:24:27;;;;;;;0.45;0.45;;;;;;;4.50;46.06;99886.81;4464635;31;33812;-81
2023/03/04 03:26:55;;;;;;;1.17;1.10;;;;;;;4.50;45.68;99881.59;4459386;31;33950;-81
2023/03/04 03:29:23;;;;;;;0.88;0.82;;;;;;;4.49;45.21;99885.09;4471813;31;34479;-81
2023/03/04 03:31:51;;;;;;;1.50;0.85;;;;;;;4.44;45.54;99881.69;4447511;32;33195;-81
2023/03/04 03:34:19;;;;;;;0.00;0.00;;;;;;;4.19;46.17;99876.88;4453616;32;33798;-81
2023/03/04 03:36:47;;;;;;;1.00;0.88;;;;;;;4.27;46.40;99869.78;4449978;32;32463;-81
2023/03/04 03:39:15;;;;;;;0.85;0.85;;;;;;;4.42;45.95;99873.03;4461604;32;34029;-81
2023/03/04 03:41:43;;;;;;;3.62;2.00;;;;;;;4.43;46.02;99877.38;4461160;32;33347;-81
2023/03/04 03:44:10;;;;;;;0.98;0.98;;;;;;;4.25;46.29;99868.94;4461382;32;33483;-82
2023/03/04 03:46:38;;;;;;;0.73;0.73;;;;;;;4.16;46.02;99871.69;4462696;32;32631;-82
2023/03/04 03:49:05;;;;;;;0.32;0.32;;;;;;;4.39;45.70;99866.09;4463275;32;33181;-82
2023/03/04 03:51:33;;;;;;;1.17;1.12;;;;;;;4.23;46.17;99864.66;4459715;32;31693;-82
2023/03/04 03:54:01;;;;;;;1.08;0.80;;;;;;;4.29;46.17;99873.22;4461214;32;33892;-80
2023/03/04 03:56:28;;;;;;;2.35;1.15;;;;;;;3.98;47.46;99867.62;4455074;32;34107;-80
2023/03/04 03:58:56;;;;;;;0.50;0.50;;;;;;;4.19;47.16;99874.28;4455489;32;33405;-81
2023/03/04 04:01:23;;;;;;;0.00;0.00;;;;;;;4.27;46.39;99869.78;4461965;32;33132;-80
2023/03/04 04:03:52;;;;;;;0.43;0.43;;;;;;;4.16;47.41;99874.31;4461232;32;33838;-81
2023/03/04 04:06:20;;;;;;;1.98;1.77;;;;;;;4.24;47.26;99869.84;4446701;32;32948;-82
2023/03/04 04:08:47;;;;;;;0.08;0.08;;;;;;;4.10;47.45;99871.81;4457590;32;33445;-82
2023/03/04 04:11:15;;;;;;;0.75;0.75;;;;;;;4.18;47.72;99867.34;4460260;32;33732;-82
2023/03/04 04:13:42;;;;;;;1.80;1.48;;;;;;;4.10;48.24;99867.44;4461674;32;33735;-82
2023/03/04 04:16:10;;;;;;;0.00;0.00;;;;;;;4.09;48.12;99864.87;4463923;32;33700;-82
2023/03/04 04:18:38;;;;;;;1.02;1.00;;;;;;;4.32;47.92;99867.06;4447790;32;32761;-82
2023/03/04 04:21:05;;;;;;;3.47;1.65;;;;;;;4.46;47.87;99861.59;4449279;32;32546;-82
2023/03/04 04:23:33;;;;;;;8.82;1.37;;;;;;;4.35;47.77;99862.66;4461548;32;34497;-82
2023/03/04 04:26:01;;;;;;;6.45;0.82;;;;;;;4.68;47.15;99865.56;4459738;32;33450;-82
2023/03/04 04:28:28;;;;;;;0.65;0.65;;;;;;;4.51;47.28;99854.53;4472257;32;33605;-82
2023/03/04 04:30:56;;;;;;;0.35;0.30;;;;;;;4.53;47.76;99865.84;4478123;32;32971;-82
2023/03/04 04:33:24;;;;;;;0.45;0.45;;;;;;;4.64;47.24;99863.87;4476912;32;33812;-83
2023/03/04 04:35:52;;;;;;;0.22;0.22;;;;;;;4.66;47.22;99854.28;4473494;31;34059;-82
2023/03/04 04:38:19;;;;;;;1.17;0.80;;;;;;;4.60;47.50;99859.59;4471657;31;33534;-82
2023/03/04 04:40:47;;;;;;;0.00;0.00;;;;;;;4.50;47.59;99860.66;4472044;31;32703;-81
2023/03/04 04:43:14;;;;;;;0.00;0.00;;;;;;;4.37;48.17;99863.50;4460333;31;34585;-82
2023/03/04 04:45:44;;;;;;;1.35;1.25;;;;;;;4.32;48.24;99873.19;4464569;31;32323;-81
2023/03/04 04:48:12;;;;;;;0.85;0.85;;;;;;;4.53;47.57;99865.84;4484457;32;33767;-81
2023/03/04 04:50:39;;;;;;;0.30;0.30;;;;;;;4.35;48.16;99857.44;4456771;31;33289;-80
2023/03/04 04:53:07;;;;;;;0.73;0.73;;;;;;;4.57;47.68;99851.84;4457681;31;33010;-81
2023/03/04 04:55:35;;;;;;;0.85;0.80;;;;;;;4.45;48.23;99854.66;4463353;31;33234;-81
2023/03/04 04:58:05;;;;;;;2.35;2.20;;;;;;;4.36;48.55;99853.91;4473208;31;34106;-81
2023/03/04 05:00:33;;;;;;;1.90;0.85;;;;;;;4.47;48.35;99853.75;4467381;31;32964;-81
2023/03/04 05:03:00;;;;;;;0.50;0.40;;;;;;;4.63;48.33;99852.56;4470550;31;33656;-81
2023/03/04 05:05:30;;;;;;;2.40;2.30;;;;;;;4.58;48.51;99853.56;4463826;31;33352;-81
2023/03/04 05:07:57;;;;;;;5.05;1.50;;;;;;;4.79;48.33;99857.50;4451989;31;33116;-81
2023/03/04 05:10:25;;;;;;;2.72;2.50;;;;;;;4.63;48.56;99854.31;4465056;31;34122;-81
2023/03/04 05:12:53;;;;;;;1.98;1.55;;;;;;;4.24;50.31;99858.53;4456006;32;34284;-81
2023/03/04 05:15:21;;;;;;;0.00;0.00;;;;;;;4.62;49.21;99852.59;4452012;31;33365;-81
2023/03/04 05:17:48;;;;;;;0.17;0.17;;;;;;;4.61;49.63;99856.13;4460896;31;32728;-81
2023/03/04 05:20:16;;;;;;;1.33;1.33;;;;;;;4.54;50.55;99857.09;4452822;31;33702;-80
2023/03/04 05:22:43;;;;;;;0.28;0.28;;;;;;;4.64;50.17;99858.66;4473809;31;34655;-81
2023/03/04 05:25:11;;;;;;;0.77;0.68;;;;;;;4.85;49.42;99858.25;4465965;31;32539;-81
2023/03/04 05:27:39;;;;;;;0.50;0.20;;;;;;;4.95;49.21;99858.09;4471575;31;33076;-81
2023/03/04 05:30:07;;;;;;;2.05;1.95;;;;;;;4.78;49.40;99867.09;4465293;31;33437;-81
2023/03/04 05:32:35;;;;;;;1.85;0.77;;;;;;;4.73;49.50;99862.84;4459666;31;33314;-81
2023/03/04 05:35:03;;;;;;;1.85;1.40;;;;;;;4.77;49.37;99865.38;4471932;32;34586;-81
2023/03/04 05:37:31;;;;;;;1.27;1.27;;;;;;;4.55;50.58;99864.91;4459787;31;34502;-81
2023/03/04 05:39:58;;;;;;;0.98;0.65;;;;;;;4.84;49.47;99867.00;4472959;31;32657;-81
2023/03/04 05:42:26;;;;;;;1.23;1.23;;;;;;;4.46;50.44;99870.31;4482047;31;34512;-81
2023/03/04 05:44:53;;;;;;;4.60;1.98;;;;;;;4.04;51.87;99871.91;4463651;31;34045;-81
2023/03/04 05:47:21;;;;;;;0.28;0.28;;;;;;;4.21;51.63;99875.09;4460933;32;33799;-81
2023/03/04 05:49:49;;;;;;;0.77;0.77;;;;;;;4.15;52.15;99875.22;4462478;32;32663;-81
2023/03/04 05:52:16;;;;;;;1.75;1.35;;;;;;;4.11;51.90;99874.38;4461883;32;34226;-81
2023/03/04 05:54:44;;;;;;;1.20;1.20;;;;;;;4.03;52.66;99883.22;4452100;31;34157;-80
2023/03/04 05:57:12;;;;;;;2.22;0.90;;;;;;;4.26;52.19;99882.88;4463556;31;33934;-81
2023/03/04 05:59:39;;;;;;;2.75;2.55;;;;;;;3.89;53.64;99882.59;4472130;31;33399;-81
2023/03/04 06:02:07;;;;;;;0.95;0.77;;;;;;;3.98;53.12;99877.22;4464060;32;33638;-81
2023/03/04 06:04:35;;;;;;;1.90;1.23;;;;;;;4.17;53.00;99893.47;4458543;31;34084;-81
2023/03/04 06:07:03;;;;;;;0.57;0.57;;;;;;;4.25;52.94;99897.69;4463836;32;34950;-82
2023/03/04 06:09:32;;;;;;;0.93;0.93;;;;;;;4.26;53.02;99893.31;4448935;31;32138;-82
2023/03/04 06:11:59;;;;;;;2.15;1.98;;;;;;;4.20;53.31;99899.50;4466199;31;33865;-82
2023/03/04 06:14:30;;;;;;;1.55;1.45;;;;;;;4.39;52.88;99901.84;4473853;31;32921;-82
2023/03/04 06:16:57;;;;;;;0.22;0.22;;;;;;;4.61;52.29;99903.19;4449554;31;32927;-81
2023/03/04 06:19:25;;;;;;;0.40;0.40;;;;;;;4.39;52.72;99910.53;4450330;31;32075;-81
2023/03/04 06:21:52;;;;;;;2.15;1.58;;;;;;;4.94;51.45;99904.31;4458291;31;34083;-81
2023/03/04 06:24:20;;;;;;;2.55;1.75;;;;;;;4.76;52.05;99910.75;4464428;32;34133;-81
2023/03/04 06:26:48;;;;;;;1.67;1.58;;;;;;;4.95;51.80;99910.41;4448557;31;33364;-81
2023/03/04 06:29:15;;;;;;;0.25;0.25;;;;;;;5.10;51.21;99912.72;4459994;32;32107;-82
2023/03/04 06:31:43;;;;;;;0.85;0.85;;;;;;;4.86;51.91;99909.69;4455703;32;32526;-82
2023/03/04 06:34:11;;;;;;;1.35;1.25;;;;;;;4.92;52.36;99913.94;4455075;32;33189;-81
2023/03/04 06:36:38;;;;;;;3.35;2.53;;;;;;;5.38;50.50;99916.53;4468611;31;33773;-81
2023/03/04 06:39:06;;;;;;;7.32;1.75;;;;;;;5.26;51.11;99922.00;4465659;31;32939;-81
2023/03/04 06:41:34;;;;;;;3.58;2.42;;;;;;;5.07;51.42;99925.87;4451874;31;32717;-81
2023/03/04 06:44:02;;;;;;;2.75;2.53;;;;;;;5.43;50.71;99924.28;4460109;31;32417;-82
2023/03/04 06:46:29;;;;;;;2.45;2.35;;;;;;;5.47;50.84;99914.59;4466130;31;33563;-81
2023/03/04 06:48:57;;;;;;;1.10;1.10;;;;;;;5.54;50.83;99914.44;4463679;31;33939;-81
2023/03/04 06:51:25;;;;;;;1.85;1.60;;;;;;;5.50;51.05;99925.00;4475366;32;33439;-81
2023/03/04 06:53:53;;;;;;;3.30;3.10;;;;;;;5.88;50.24;99916.31;4461764;31;34686;-81
2023/03/04 06:56:21;;;;;;;1.45;1.37;;;;;;;5.82;50.45;99917.31;4461268;32;34446;-82
2023/03/04 06:58:48;;;;;;;2.00;1.85;;;;;;;5.87;50.50;99914.59;4457291;32;32464;-82
2023/03/04 07:01:22;;;;;;;2.28;1.90;;;;;;;5.96;50.19;99927.50;4459646;31;33112;-81
2023/03/04 07:03:51;;;;;;;0.82;0.82;;;;;;;5.79;50.26;99920.03;4457733;31;33578;-81
2023/03/04 07:06:21;;;;;;;2.15;1.95;;;;;;;5.83;50.58;99923.41;4465940;31;33248;-81
2023/03/04 07:08:49;;;;;;;2.00;1.73;;;;;;;5.46;51.21;99923.34;4465511;31;31894;-81
2023/03/04 07:11:17;;;;;;;2.97;2.62;;;;;;;5.72;50.73;99918.41;4473997;31;34758;-81
2023/03/04 07:13:45;;;;;;;4.68;4.28;;;;;;;6.13;49.97;99920.13;4456383;31;33831;-81
2023/03/04 07:16:16;;;;;;;3.50;3.03;;;;;;;6.18;50.07;99925.28;4458970;32;33325;-82
2023/03/04 07:18:45;;;;;;;1.48;1.48;;;;;;;6.39;49.82;99918.63;4471713;31;33562;-82
2023/03/04 07:21:14;;;;;;;3.83;3.28;;;;;;;6.43;49.57;99911.56;4474484;31;34625;-83
2023/03/04 07:23:41;;;;;;;1.67;1.58;;;;;;;6.08;50.46;99914.12;4466645;31;34107;-81
2023/03/04 07:26:09;;;;;;;3.87;3.15;;;;;;;6.25;49.89;99916.34;4464195;31;32381;-82
2023/03/04 07:28:37;;;;;;;1.77;1.67;;;;;;;6.16;50.71;99906.94;4466638;31;33376;-82
2023/03/04 07:31:16;;;;;;;1.77;1.02;;;;;;;5.95;51.38;99914.47;4463999;31;32767;-81
2023/03/04 07:33:44;;;;;;;1.25;1.15;;;;;;;6.06;51.24;99909.81;4452610;31;34189;-81
2023/03/04 07:36:13;;;;;;;2.53;2.30;;;;;;;6.23;50.92;99902.41;4471793;31;33546;-82
2023/03/04 07:38:46;;;;;;;1.65;1.30;;;;;;;6.48;50.68;99897.41;4468244;31;32658;-83
2023/03/04 07:41:16;;;;;;;13.18;3.83;;;;;;;6.60;50.08;99901.50;4459131;31;33446;-84
2023/03/04 07:43:44;;;;;;;1.70;1.60;;;;;;;6.84;49.88;99897.38;4460906;31;33693;-81
2023/03/04 07:46:12;;;;;;;4.47;4.10;;;;;;;6.55;50.55;99895.47;4474455;31;34124;-81
2023/03/04 07:48:40;;;;;;;1.75;1.65;;;;;;;7.04;49.86;99902.06;4459636;31;33466;-81
2023/03/04 07:51:13;;;;;;;2.28;2.12;;;;;;;7.16;49.71;99885.97;4464192;31;33481;-81
2023/03/04 07:53:44;;;;;;;2.15;2.05;;;;;;;6.96;50.06;99893.53;4450853;31;33301;-82
2023/03/04 07:56:15;;;;;;;1.90;1.80;;;;;;;7.18;49.42;99900.78;4467952;31;32490;-81
2023/03/04 07:58:43;;;;;;;4.00;2.85;;;;;;;6.99;49.79;99901.34;4466691;32;34121;-82
2023/03/04 08:01:14;;;;;;;5.65;2.85;;;;;;;7.03;49.86;99902.97;4455746;31;33002;-81
2023/03/04 08:03:43;;;;;;;2.58;2.37;;;;;;;7.63;48.43;99895.06;4462890;32;34040;-82
2023/03/04 08:06:13;;;;;;;5.00;4.55;;;;;;;7.57;48.39;99889.16;4455159;31;33117;-81
2023/03/04 08:08:41;;;;;;;1.73;1.20;;;;;;;7.81;47.49;99893.66;4460531;32;32359;-82
2023/03/04 08:11:15;;;;;;;1.50;1.40;;;;;;;7.73;47.29;99892.16;4471771;32;32684;-81
2023/03/04 08:13:42;;;;;;;0.95;0.95;;;;;;;7.96;45.94;99889.69;4463695;31;34227;-82
2023/03/04 08:16:17;;;;;;;1.30;1.25;;;;;;;8.15;45.54;99885.56;4471363;31;33158;-81
2023/03/04 08:18:47;;;;;;;1.37;0.88;;;;;;;8.52;44.61;99880.91;4475678;31;34102;-81
2023/03/04 08:21:18;;;;;;;6.90;4.32;;;;;;;8.55;44.06;99872.91;4471918;31;33529;-81
2023/03/04 08:23:46;;;;;;;0.73;0.73;;;;;;;8.75;43.98;99875.69;4468589;31;33029;-81
2023/03/04 08:26:26;;;;;;;0.40;0.40;;;;;;;8.74;44.00;99874.00;4474970;31;32549;-81
2023/03/04 08:28:55;;;;;;;1.55;1.45;;;;;;;8.80;43.07;99873.75;4462147;31;32856;-81
2023/03/04 08:31:23;;;;;;;2.42;2.17;;;;;;;8.33;44.18;99873.59;4465321;32;33796;-81
2023/03/04 08:33:51;;;;;;;1.23;1.12;;;;;;;8.44;43.97;99871.47;4453071;32;33046;-81
2023/03/04 08:36:19;;;;;;;2.75;2.55;;;;;;;8.29;44.93;99866.69;4475623;32;34542;-81
2023/03/04 08:38:47;;;;;;;3.80;2.67;;;;;;;8.79;42.67;99869.41;4471888;31;33349;-81
2023/03/04 08:41:15;;;;;;;1.15;1.05;;;;;;;8.70;42.54;99867.09;4462635;31;34028;-81
2023/03/04 08:43:43;;;;;;;0.85;0.85;;;;;;;9.15;41.09;99867.22;4477653;32;33040;-81
2023/03/04 08:46:11;;;;;;;2.83;1.87;;;;;;;9.01;41.50;99866.00;4463123;32;34110;-81
2023/03/04 08:48:39;;;;;;;2.83;2.28;;;;;;;9.21;41.47;99863.53;4465742;31;32653;-80
2023/03/04 08:51:12;;;;;;;10.32;2.42;;;;;;;9.16;42.22;99860.16;4462117;31;33611;-80
2023/03/04 08:53:40;;;;;;;1.02;0.75;;;;;;;9.15;42.24;99863.72;4465534;31;32680;-81
2023/03/04 08:56:09;;;;;;;2.20;2.10;;;;;;;8.82;40.55;99864.03;4472016;32;33941;-81
2023/03/04 08:58:37;;;;;;;5.72;1.83;;;;;;;9.31;40.30;99859.62;4459068;31;32720;-81
2023/03/04 09:01:07;;;;;;;4.78;3.30;;;;;;;9.41;40.26;99862.75;4457700;31;33045;-81
2023/03/04 09:03:35;;;;;;;1.85;1.75;;;;;;;9.38;40.57;99850.56;4476127;31;35099;-80
2023/03/04 09:06:04;;;;;;;1.27;1.17;;;;;;;10.21;38.13;99849.94;4453824;31;33257;-81
2023/03/04 09:08:33;;;;;;;6.47;2.25;;;;;;;10.24;38.96;99853.31;4473862;32;32739;-80
2023/03/04 09:11:01;;;;;;;2.33;2.17;;;;;;;10.18;39.24;99847.41;4472167;31;33692;-81
2023/03/04 09:13:30;;;;;;;2.53;2.33;;;;;;;10.22;38.76;99843.72;4471993;31;33916;-80
2023/03/04 09:15:58;;;;;;;1.08;1.08;;;;;;;10.20;38.94;99840.25;4462609;31;33678;-81
2023/03/04 09:18:27;;;;;;;0.75;0.75;;;;;;;10.58;37.65;99840.47;4475418;31;33119;-80
2023/03/04 09:20:55;;;;;;;0.80;0.80;;;;;;;10.82;37.50;99844.66;4459031;31;34221;-81
2023/03/04 09:23:22;;;;;;;3.03;1.45;;;;;;;10.58;38.54;99835.19;4451964;31;34476;-81
2023/03/04 09:25:50;;;;;;;1.92;1.77;;;;;;;10.81;38.20;99842.97;4459527;31;33656;-81
2023/03/04 09:28:18;;;;;;;5.25;2.50;;;;;;;10.80;39.08;99841.25;4453962;31;32537;-81
2023/03/04 09:30:46;;;;;;;1.92;1.75;;;;;;;10.98;37.55;99834.31;4463653;31;34144;-81
2023/03/04 09:33:15;;;;;;;0.62;0.62;;;;;;;11.25;37.23;99834.81;4475702;32;34764;-81
2023/03/04 09:35:43;;;;;;;0.75;0.75;;;;;;;11.22;38.15;99837.62;4452273;31;32907;-81
2023/03/04 09:38:11;;;;;;;19.92;1.42;;;;;;;10.93;38.01;99831.88;4457320;31;33876;-81
2023/03/04 09:40:42;;;;;;;2.78;2.03;;;;;;;11.29;37.97;99833.75;4471211;32;33306;-81
2023/03/04 09:43:17;;;;;;;2.78;2.58;;;;;;;11.11;38.50;99829.31;4456694;31;34395;-81
2023/03/04 09:45:51;;;;;;;1.12;1.08;;;;;;;11.24;38.30;99827.81;4461208;31;33807;-82
2023/03/04 09:48:24;;;;;;;2.10;1.77;;;;;;;11.65;36.83;99819.75;4469175;31;32945;-81
2023/03/04 09:51:13;;;;;;;1.73;1.52;;;;;;;11.15;39.03;99825.59;4459198;31;34034;-81
2023/03/04 09:53:47;;;;;;;2.97;2.17;;;;;;;11.62;37.47;99809.31;4469880;32;36415;-80
2023/03/04 09:56:15;;;;;;;2.60;2.40;;;;;;;11.63;37.17;99808.38;4486431;31;33692;-82
2023/03/04 09:58:59;;;;;;;6.03;1.33;;;;;;;12.01;36.40;99807.44;4474528;32;34267;-81
2023/03/04 10:01:42;;;;;;;2.20;2.00;;;;;;;11.94;36.93;99816.56;4466784;31;35438;-83
2023/03/04 10:04:39;;;;;;;1.27;1.27;;;;;;;12.35;35.62;99804.88;4465263;31;32855;-83
2023/03/04 10:07:18;;;;;;;1.40;1.30;;;;;;;12.29;36.03;99806.00;4471451;31;34470;-83
2023/03/04 10:09:50;;;;;;;4.15;1.92;;;;;;;12.47;35.40;99798.94;4471378;31;33370;-83
2023/03/04 10:12:22;;;;;;;2.25;2.08;;;;;;;12.54;35.67;99790.59;4463708;31;33212;-85
2023/03/04 10:15:29;;;;;;;1.85;1.75;;;;;;;12.72;35.66;99783.50;4471907;31;33927;-83
2023/03/04 10:18:06;;;;;;;3.30;3.08;;;;;;;12.91;34.64;99786.00;4463078;32;33286;-83
2023/03/04 10:21:05;;;;;;;2.78;2.25;;;;;;;12.71;35.21;99791.50;4470028;31;33437;-83
2023/03/04 10:23:33;;;;;;;1.80;1.70;;;;;;;12.76;35.39;99785.00;4468873;31;34524;-83
2023/03/04 10:26:14;;;;;;;1.67;1.58;;;;;;;12.37;36.69;99787.97;4458888;32;33482;-83
2023/03/04 10:28:42;;;;;;;4.07;1.85;;;;;;;12.88;35.18;99783.53;4460212;31;33688;-84
2023/03/04 10:31:35;;;;;;;2.12;1.30;;;;;;;13.05;34.47;99783.50;4473188;31;32372;-84
2023/03/04 10:34:04;;;;;;;2.80;2.65;;;;;;;12.89;35.38;99785.22;4475563;32;33563;-83
2023/03/04 10:36:39;;;;;;;1.30;1.20;;;;;;;13.08;34.81;99779.78;4463873;32;34702;-83
2023/03/04 10:39:16;;;;;;;5.90;2.10;;;;;;;12.87;35.86;99768.56;4456354;31;32941;-83
2023/03/04 10:41:53;;;;;;;1.15;1.05;;;;;;;12.88;35.63;99762.31;4472433;31;33148;-82
2023/03/04 10:44:22;;;;;;;5.70;3.85;;;;;;;12.98;35.80;99755.59;4451830;31;32365;-82
2023/03/04 10:46:53;;;;;;;0.32;0.32;;;;;;;13.50;33.95;99755.38;4458525;31;34680;-83
2023/03/04 10:49:21;;;;;;;4.28;3.20;;;;;;;13.29;34.13;99753.91;4470257;31;33825;-83
2023/03/04 10:51:55;;;;;;;1.40;1.30;;;;;;;13.31;35.73;99741.44;4470861;32;33379;-83
2023/03/04 10:54:28;;;;;;;1.77;1.67;;;;;;;13.57;34.61;99751.44;4468624;32;32839;-83
2023/03/04 10:57:01;;;;;;;4.93;3.57;;;;;;;13.80;33.56;99733.34;4472395;31;33987;-83
2023/03/04 10:59:49;;;;;;;2.28;2.08;;;;;;;13.66;32.89;99733.28;4467031;31;34714;-83
2023/03/04 11:02:23;;;;;;;1.75;1.15;;;;;;;13.94;32.97;99733.41;4483960;31;33409;-83
2023/03/04 11:05:02;;;;;;;2.28;2.12;;;;;;;13.96;32.85;99726.22;4470828;31;33997;-82
2023/03/04 11:07:29;;;;;;;3.80;3.33;;;;;;;14.01;32.65;99728.59;4455865;32;34820;-83
2023/03/04 11:10:10;;;;;;;4.93;2.08;;;;;;;14.08;32.41;99728.13;4460658;31;31876;-83
2023/03/04 11:12:37;;;;;;;4.25;2.78;;;;;;;13.82;33.16;99728.81;4472547;31;34114;-82
2023/03/04 11:15:23;;;;;;;5.18;3.95;;;;;;;13.70;33.77;99726.87;4464241;31;32801;-82
2023/03/04 11:17:54;;;;;;;8.27;2.83;;;;;;;13.95;32.04;99713.84;4471064;31;33303;-82
2023/03/04 11:20:39;;;;;;;3.33;2.92;;;;;;;14.06;32.11;99716.75;4457214;31;33942;-82
2023/03/04 11:23:15;;;;;;;1.40;1.40;;;;;;;14.03;31.83;99708.97;4469011;31;33162;-82
2023/03/04 11:25:47;;;;;;;6.37;2.33;;;;;;;13.46;32.86;99706.09;4470411;31;33540;-83
2023/03/04 11:28:23;;;;;;;2.15;1.48;;;;;;;13.63;33.39;99701.66;4448385;31;32562;-82
2023/03/04 11:30:54;;;;;;;7.53;4.53;;;;;;;14.11;31.98;99697.91;4469507;32;33938;-83
2023/03/04 11:33:48;;;;;;;5.55;3.20;;;;;;;13.94;32.00;99700.69;4468464;32;32695;-82
2023/03/04 11:36:28;;;;;;;2.75;1.67;;;;;;;14.60;30.57;99694.94;4457197;31;34163;-83
2023/03/04 11:38:56;;;;;;;2.78;2.55;;;;;;;14.23;31.58;99688.31;4484827;31;32789;-83
2023/03/04 11:41:35;;;;;;;7.87;2.37;;;;;;;13.86;32.37;99692.31;4461401;31;32837;-83
2023/03/04 11:44:05;;;;;;;2.50;2.25;;;;;;;14.37;31.67;99688.34;4472891;31;33983;-83
2023/03/04 11:46:59;;;;;;;1.77;1.67;;;;;;;15.04;29.59;99672.66;4471938;31;33521;-82
2023/03/04 11:49:33;;;;;;;3.67;1.52;;;;;;;14.40;30.57;99676.69;4464032;31;33981;-83
2023/03/04 11:52:11;;;;;;;0.80;0.80;;;;;;;14.57;30.83;99666.75;4484645;31;33014;-82